WLF2068 VHHH-ROAH
Flight info
| Callsign | WLF2068 |
|---|---|
| Flight time | 1h 53m |
| Altitude | 41000 |
| Route | DALOL V631 ENVAR M750 KUDOS R595 MJC Y57 VELNO |
| Aircraft | A359/H-SDE2E3GHIJ3J4J5LM1ORWXY/LB1D1 |
Departure
| Time | 2026-04-21 18:12 |
|---|---|
| Airport | Hong Kong International Airport (VHHH) |
Arrival
| Time | 2026-04-21 20:05 |
|---|---|
| Airport | Naha International Airport (ROAH) |
| Time | Latitude | Longitude | Altitude | Speed | Heading |
|---|---|---|---|---|---|
| 2026-04-21 16:56 | 22.31684 | 113.93298 | 38 ft | 0 kts | 71° |
| 2026-04-21 17:14 | 22.31684 | 113.93297 | 38 ft | 0 kts | 71° |
| 2026-04-21 17:37 | 22.31684 | 113.93296 | 38 ft | 0 kts | 71° |
| 2026-04-21 17:54 | 22.31683 | 113.93296 | 38 ft | 0 kts | 71° |
| 2026-04-21 17:58 | 22.31683 | 113.93295 | 38 ft | 1 kts | 71° |
| 2026-04-21 17:58 | 22.31675 | 113.93270 | 38 ft | 4 kts | 71° |
| 2026-04-21 17:59 | 22.31666 | 113.93242 | 38 ft | 4 kts | 71° |
| 2026-04-21 17:59 | 22.31658 | 113.93215 | 38 ft | 4 kts | 88° |
| 2026-04-21 17:59 | 22.31664 | 113.93195 | 37 ft | 3 kts | 158° |
| 2026-04-21 17:59 | 22.31684 | 113.93187 | 38 ft | 4 kts | 161° |
| 2026-04-21 18:00 | 22.31701 | 113.93181 | 38 ft | 0 kts | 161° |
| 2026-04-21 18:05 | 22.31679 | 113.93187 | 38 ft | 8 kts | 169° |
| 2026-04-21 18:05 | 22.31610 | 113.93159 | 38 ft | 12 kts | 230° |
| 2026-04-21 18:05 | 22.31576 | 113.93066 | 38 ft | 15 kts | 251° |
| 2026-04-21 18:05 | 22.31538 | 113.92950 | 38 ft | 18 kts | 250° |
| 2026-04-21 18:06 | 22.31495 | 113.92816 | 38 ft | 20 kts | 256° |
| 2026-04-21 18:06 | 22.31531 | 113.92669 | 37 ft | 22 kts | 294° |
| 2026-04-21 18:06 | 22.31603 | 113.92514 | 36 ft | 24 kts | 296° |
| 2026-04-21 18:06 | 22.31642 | 113.92380 | 38 ft | 16 kts | 265° |
| 2026-04-21 18:07 | 22.31607 | 113.92257 | 38 ft | 19 kts | 251° |
| 2026-04-21 18:07 | 22.31562 | 113.92116 | 38 ft | 21 kts | 256° |
| 2026-04-21 18:07 | 22.31602 | 113.91976 | 38 ft | 20 kts | 268° |
| 2026-04-21 18:07 | 22.31562 | 113.91821 | 38 ft | 23 kts | 251° |
| 2026-04-21 18:08 | 22.31506 | 113.91654 | 38 ft | 25 kts | 250° |
| 2026-04-21 18:08 | 22.31447 | 113.91472 | 39 ft | 27 kts | 251° |
| 2026-04-21 18:08 | 22.31384 | 113.91277 | 39 ft | 28 kts | 251° |
| 2026-04-21 18:08 | 22.31317 | 113.91070 | 39 ft | 30 kts | 251° |
| 2026-04-21 18:09 | 22.31246 | 113.90851 | 39 ft | 32 kts | 251° |
| 2026-04-21 18:09 | 22.31173 | 113.90622 | 38 ft | 33 kts | 251° |
| 2026-04-21 18:09 | 22.31095 | 113.90383 | 38 ft | 34 kts | 251° |
| 2026-04-21 18:09 | 22.31015 | 113.90135 | 38 ft | 35 kts | 251° |
| 2026-04-21 18:10 | 22.30942 | 113.89907 | 38 ft | 20 kts | 251° |
| 2026-04-21 18:10 | 22.30958 | 113.89824 | 38 ft | 10 kts | 327° |
| 2026-04-21 18:10 | 22.31022 | 113.89786 | 36 ft | 12 kts | 331° |
| 2026-04-21 18:10 | 22.31092 | 113.89816 | 36 ft | 13 kts | 59° |
| 2026-04-21 18:11 | 22.31126 | 113.89909 | 36 ft | 12 kts | 70° |
| 2026-04-21 18:11 | 22.31157 | 113.90003 | 36 ft | 15 kts | 70° |
| 2026-04-21 18:11 | 22.31253 | 113.90299 | 37 ft | 80 kts | 71° |
| 2026-04-21 18:11 | 22.31517 | 113.91122 | 38 ft | 149 kts | 71° |
| 2026-04-21 18:12 | 22.31936 | 113.92352 | 287 ft | 186 kts | 71° |
| 2026-04-21 18:12 | 22.32431 | 113.93639 | 1157 ft | 184 kts | 70° |
| 2026-04-21 18:12 | 22.32927 | 113.94876 | 2022 ft | 174 kts | 69° |
| 2026-04-21 18:12 | 22.33450 | 113.96125 | 2371 ft | 189 kts | 70° |
| 2026-04-21 18:13 | 22.33935 | 113.97464 | 2832 ft | 194 kts | 77° |
| 2026-04-21 18:13 | 22.34214 | 113.98914 | 3197 ft | 204 kts | 90° |
| 2026-04-21 18:13 | 22.34285 | 114.00499 | 3576 ft | 217 kts | 92° |
| 2026-04-21 18:13 | 22.34404 | 114.02161 | 4112 ft | 225 kts | 89° |
| 2026-04-21 18:14 | 22.34048 | 114.05519 | 5137 ft | 227 kts | 119° |
| 2026-04-21 18:14 | 22.33192 | 114.06897 | 5671 ft | 225 kts | 139° |
| 2026-04-21 18:14 | 22.31938 | 114.07955 | 6090 ft | 232 kts | 154° |
| 2026-04-21 18:15 | 22.30409 | 114.08607 | 6470 ft | 240 kts | 170° |
| 2026-04-21 18:15 | 22.28750 | 114.08798 | 6996 ft | 242 kts | 182° |
| 2026-04-21 18:15 | 22.27045 | 114.08777 | 7332 ft | 255 kts | 184° |
| 2026-04-21 18:15 | 22.25208 | 114.08731 | 7740 ft | 265 kts | 184° |
| 2026-04-21 18:16 | 22.23368 | 114.08698 | 8250 ft | 270 kts | 184° |
| 2026-04-21 18:16 | 22.21473 | 114.08672 | 8821 ft | 274 kts | 184° |
| 2026-04-21 18:16 | 22.19554 | 114.08680 | 9389 ft | 279 kts | 180° |
| 2026-04-21 18:16 | 22.17624 | 114.09077 | 9938 ft | 288 kts | 164° |
| 2026-04-21 18:17 | 22.15834 | 114.10152 | 10249 ft | 307 kts | 144° |
| 2026-04-21 18:17 | 22.14420 | 114.11973 | 10482 ft | 328 kts | 123° |
| 2026-04-21 18:17 | 22.13328 | 114.14197 | 10700 ft | 342 kts | 119° |
| 2026-04-21 18:17 | 22.12255 | 114.16541 | 10906 ft | 355 kts | 119° |
| 2026-04-21 18:18 | 22.11135 | 114.18960 | 11111 ft | 366 kts | 120° |
| 2026-04-21 18:18 | 22.09970 | 114.21444 | 11368 ft | 375 kts | 120° |
| 2026-04-21 18:18 | 22.08773 | 114.23962 | 11731 ft | 379 kts | 121° |
| 2026-04-21 18:18 | 22.07295 | 114.26301 | 12098 ft | 378 kts | 136° |
| 2026-04-21 18:19 | 22.05319 | 114.28147 | 12509 ft | 377 kts | 146° |
| 2026-04-21 18:19 | 22.03196 | 114.29822 | 12889 ft | 380 kts | 148° |
| 2026-04-21 18:19 | 22.01044 | 114.31497 | 13293 ft | 383 kts | 147° |
| 2026-04-21 18:19 | 21.98879 | 114.33193 | 13687 ft | 386 kts | 147° |
| 2026-04-21 18:20 | 21.96701 | 114.34904 | 14033 ft | 389 kts | 147° |
| 2026-04-21 18:20 | 21.94511 | 114.36629 | 14389 ft | 391 kts | 147° |
| 2026-04-21 18:20 | 21.92305 | 114.38366 | 14734 ft | 394 kts | 147° |
| 2026-04-21 18:20 | 21.90081 | 114.40113 | 15062 ft | 397 kts | 147° |
| 2026-04-21 18:21 | 21.87855 | 114.41876 | 15396 ft | 400 kts | 145° |
| 2026-04-21 18:21 | 21.85810 | 114.43930 | 15721 ft | 406 kts | 132° |
| 2026-04-21 18:21 | 21.84316 | 114.46521 | 16057 ft | 412 kts | 114° |
| 2026-04-21 18:21 | 21.83400 | 114.49459 | 16400 ft | 415 kts | 106° |
| 2026-04-21 18:22 | 21.82638 | 114.52464 | 16735 ft | 418 kts | 105° |
| 2026-04-21 18:22 | 21.81878 | 114.55491 | 17072 ft | 419 kts | 105° |
| 2026-04-21 18:22 | 21.81108 | 114.58527 | 17399 ft | 422 kts | 105° |
| 2026-04-21 18:22 | 21.80328 | 114.61578 | 17727 ft | 424 kts | 105° |
| 2026-04-21 18:23 | 21.79553 | 114.64594 | 18048 ft | 426 kts | 105° |
| 2026-04-21 18:23 | 21.78761 | 114.67668 | 18370 ft | 427 kts | 105° |
| 2026-04-21 18:23 | 21.77962 | 114.70750 | 18646 ft | 429 kts | 105° |
| 2026-04-21 18:23 | 21.77157 | 114.73850 | 18909 ft | 431 kts | 105° |
| 2026-04-21 18:24 | 21.76350 | 114.76960 | 19178 ft | 433 kts | 105° |
| 2026-04-21 18:24 | 21.75537 | 114.80086 | 19456 ft | 435 kts | 105° |
| 2026-04-21 18:24 | 21.74761 | 114.83239 | 19728 ft | 436 kts | 102° |
| 2026-04-21 18:24 | 21.74354 | 114.86474 | 19988 ft | 438 kts | 94° |
| 2026-04-21 18:25 | 21.74221 | 114.89750 | 20246 ft | 440 kts | 90° |
| 2026-04-21 18:25 | 21.74211 | 114.93043 | 20510 ft | 441 kts | 89° |
| 2026-04-21 18:25 | 21.74252 | 114.96351 | 20769 ft | 443 kts | 88° |
| 2026-04-21 18:25 | 21.74303 | 114.99672 | 21018 ft | 445 kts | 88° |
| 2026-04-21 18:26 | 21.74343 | 115.03010 | 21200 ft | 448 kts | 89° |
| 2026-04-21 18:26 | 21.74367 | 115.06368 | 21464 ft | 450 kts | 89° |
| 2026-04-21 18:26 | 21.74377 | 115.09738 | 21737 ft | 451 kts | 89° |
| 2026-04-21 18:26 | 21.74377 | 115.13121 | 21977 ft | 453 kts | 89° |
| 2026-04-21 18:27 | 21.74373 | 115.16520 | 22225 ft | 455 kts | 89° |
| 2026-04-21 18:27 | 21.74367 | 115.19931 | 22494 ft | 457 kts | 89° |
| 2026-04-21 18:27 | 21.74361 | 115.23357 | 22762 ft | 459 kts | 89° |
| 2026-04-21 18:27 | 21.74355 | 115.26793 | 23005 ft | 460 kts | 89° |
| 2026-04-21 18:28 | 21.74347 | 115.30241 | 23238 ft | 462 kts | 89° |
| 2026-04-21 18:28 | 21.74338 | 115.33706 | 23474 ft | 464 kts | 89° |
| 2026-04-21 18:28 | 21.74327 | 115.37179 | 23690 ft | 465 kts | 89° |
| 2026-04-21 18:28 | 21.74317 | 115.40662 | 23909 ft | 467 kts | 89° |
| 2026-04-21 18:29 | 21.74306 | 115.44158 | 24110 ft | 468 kts | 89° |
| 2026-04-21 18:29 | 21.74295 | 115.47668 | 24301 ft | 470 kts | 89° |
| 2026-04-21 18:29 | 21.74284 | 115.51190 | 24527 ft | 472 kts | 89° |
| 2026-04-21 18:29 | 21.74272 | 115.54721 | 24747 ft | 473 kts | 89° |
| 2026-04-21 18:30 | 21.74260 | 115.58259 | 24934 ft | 475 kts | 89° |
| 2026-04-21 18:30 | 21.74248 | 115.61817 | 25142 ft | 476 kts | 89° |
| 2026-04-21 18:30 | 21.74235 | 115.65383 | 25353 ft | 478 kts | 89° |
| 2026-04-21 18:30 | 21.74221 | 115.68968 | 25608 ft | 478 kts | 89° |
| 2026-04-21 18:31 | 21.74205 | 115.72549 | 25832 ft | 480 kts | 90° |
| 2026-04-21 18:31 | 21.74189 | 115.76145 | 26053 ft | 482 kts | 90° |
| 2026-04-21 18:31 | 21.74174 | 115.79756 | 26250 ft | 484 kts | 90° |
| 2026-04-21 18:31 | 21.74157 | 115.83375 | 26484 ft | 486 kts | 90° |
| 2026-04-21 18:32 | 21.74139 | 115.86967 | 26713 ft | 487 kts | 90° |
| 2026-04-21 18:32 | 21.74120 | 115.90616 | 26939 ft | 489 kts | 90° |
| 2026-04-21 18:32 | 21.74101 | 115.94282 | 27173 ft | 491 kts | 90° |
| 2026-04-21 18:32 | 21.74080 | 115.97959 | 27437 ft | 492 kts | 90° |
| 2026-04-21 18:33 | 21.74058 | 116.01643 | 27683 ft | 494 kts | 90° |
| 2026-04-21 18:33 | 21.74035 | 116.05346 | 27906 ft | 496 kts | 90° |
| 2026-04-21 18:33 | 21.74011 | 116.09063 | 28141 ft | 498 kts | 90° |
| 2026-04-21 18:33 | 21.73995 | 116.11581 | 28291 ft | 499 kts | 90° |
| 2026-04-21 18:34 | 21.73969 | 116.15321 | 28543 ft | 501 kts | 90° |
| 2026-04-21 18:34 | 21.73943 | 116.19072 | 28792 ft | 503 kts | 90° |
| 2026-04-21 18:34 | 21.73917 | 116.22840 | 29015 ft | 505 kts | 90° |
| 2026-04-21 18:34 | 21.73888 | 116.26624 | 29241 ft | 507 kts | 90° |
| 2026-04-21 18:35 | 21.73859 | 116.30415 | 29481 ft | 509 kts | 90° |
| 2026-04-21 18:35 | 21.73829 | 116.34223 | 29727 ft | 511 kts | 90° |
| 2026-04-21 18:35 | 21.73798 | 116.38057 | 29966 ft | 512 kts | 90° |
| 2026-04-21 18:35 | 21.73766 | 116.41893 | 30186 ft | 514 kts | 90° |
| 2026-04-21 18:36 | 21.73734 | 116.45691 | 30423 ft | 515 kts | 90° |
| 2026-04-21 18:36 | 21.73701 | 116.49537 | 30672 ft | 517 kts | 90° |
| 2026-04-21 18:36 | 21.73666 | 116.53421 | 30928 ft | 518 kts | 90° |
| 2026-04-21 18:36 | 21.73632 | 116.57293 | 31199 ft | 519 kts | 90° |
| 2026-04-21 18:37 | 21.73596 | 116.61179 | 31419 ft | 520 kts | 90° |
| 2026-04-21 18:37 | 21.73559 | 116.65066 | 31670 ft | 521 kts | 90° |
| 2026-04-21 18:37 | 21.73520 | 116.68968 | 31913 ft | 522 kts | 90° |
| 2026-04-21 18:37 | 21.73481 | 116.72877 | 32145 ft | 523 kts | 90° |
| 2026-04-21 18:38 | 21.73669 | 116.76773 | 32362 ft | 523 kts | 82° |
| 2026-04-21 18:38 | 21.74375 | 116.80608 | 32572 ft | 523 kts | 72° |
| 2026-04-21 18:38 | 21.75516 | 116.84336 | 32695 ft | 525 kts | 69° |
| 2026-04-21 18:38 | 21.76786 | 116.88021 | 32912 ft | 526 kts | 67° |
| 2026-04-21 18:39 | 21.78115 | 116.91686 | 33160 ft | 526 kts | 67° |
| 2026-04-21 18:39 | 21.79462 | 116.95342 | 33467 ft | 525 kts | 66° |
| 2026-04-21 18:39 | 21.80808 | 116.98985 | 33821 ft | 523 kts | 66° |
| 2026-04-21 18:39 | 21.82145 | 117.02623 | 34137 ft | 522 kts | 67° |
| 2026-04-21 18:40 | 21.83469 | 117.06251 | 34420 ft | 521 kts | 67° |
| 2026-04-21 18:40 | 21.84786 | 117.09881 | 34677 ft | 521 kts | 67° |
| 2026-04-21 18:40 | 21.85656 | 117.12287 | 34848 ft | 521 kts | 67° |
| 2026-04-21 18:40 | 21.87405 | 117.17140 | 35252 ft | 520 kts | 67° |
| 2026-04-21 18:41 | 21.88709 | 117.20766 | 35525 ft | 519 kts | 67° |
| 2026-04-21 18:41 | 21.90012 | 117.24391 | 35813 ft | 519 kts | 67° |
| 2026-04-21 18:41 | 21.91315 | 117.28022 | 36137 ft | 518 kts | 66° |
| 2026-04-21 18:41 | 21.92611 | 117.31633 | 36446 ft | 517 kts | 66° |
| 2026-04-21 18:42 | 21.93906 | 117.35244 | 36780 ft | 517 kts | 66° |
| 2026-04-21 18:42 | 21.95203 | 117.38862 | 37011 ft | 518 kts | 66° |
| 2026-04-21 18:42 | 21.96498 | 117.42475 | 37291 ft | 518 kts | 66° |
| 2026-04-21 18:42 | 21.97795 | 117.46099 | 37612 ft | 517 kts | 66° |
| 2026-04-21 18:43 | 21.99198 | 117.49650 | 37898 ft | 514 kts | 60° |
| 2026-04-21 18:43 | 22.00923 | 117.53004 | 38213 ft | 511 kts | 56° |
| 2026-04-21 18:43 | 22.02732 | 117.56296 | 38538 ft | 510 kts | 55° |
| 2026-04-21 18:43 | 22.04574 | 117.59559 | 38798 ft | 509 kts | 55° |
| 2026-04-21 18:44 | 22.06429 | 117.62811 | 39030 ft | 508 kts | 54° |
| 2026-04-21 18:44 | 22.08284 | 117.66051 | 39253 ft | 508 kts | 54° |
| 2026-04-21 18:44 | 22.10135 | 117.69291 | 39477 ft | 508 kts | 55° |
| 2026-04-21 18:44 | 22.11986 | 117.72541 | 39699 ft | 508 kts | 55° |
| 2026-04-21 18:45 | 22.13830 | 117.75788 | 39913 ft | 508 kts | 55° |
| 2026-04-21 18:45 | 22.15648 | 117.78998 | 40127 ft | 508 kts | 54° |
| 2026-04-21 18:45 | 22.17512 | 117.82292 | 40290 ft | 509 kts | 54° |
| 2026-04-21 18:45 | 22.19330 | 117.85508 | 40493 ft | 508 kts | 54° |
| 2026-04-21 18:46 | 22.21170 | 117.88766 | 40700 ft | 508 kts | 55° |
| 2026-04-21 18:46 | 22.23008 | 117.92023 | 40860 ft | 509 kts | 55° |
| 2026-04-21 18:46 | 22.24851 | 117.95288 | 40890 ft | 509 kts | 55° |
| 2026-04-21 18:47 | 22.28521 | 118.01794 | 40898 ft | 507 kts | 54° |
| 2026-04-21 18:47 | 22.32267 | 118.08244 | 40895 ft | 507 kts | 54° |
| 2026-04-21 18:48 | 22.36051 | 118.14682 | 40893 ft | 508 kts | 54° |
| 2026-04-21 18:48 | 22.39825 | 118.21135 | 40894 ft | 508 kts | 54° |
| 2026-04-21 18:49 | 22.43561 | 118.27627 | 40890 ft | 509 kts | 54° |
| 2026-04-21 18:49 | 22.46627 | 118.33071 | 40894 ft | 509 kts | 54° |
| 2026-04-21 18:50 | 22.50928 | 118.40715 | 40894 ft | 510 kts | 54° |
| 2026-04-21 18:50 | 22.54625 | 118.47268 | 40896 ft | 510 kts | 54° |
| 2026-04-21 18:51 | 22.58320 | 118.53811 | 40892 ft | 510 kts | 54° |
| 2026-04-21 18:51 | 22.62048 | 118.60353 | 40893 ft | 510 kts | 54° |
| 2026-04-21 18:52 | 22.65773 | 118.66878 | 40898 ft | 510 kts | 54° |
| 2026-04-21 18:52 | 22.69497 | 118.73421 | 40899 ft | 510 kts | 54° |
| 2026-04-21 18:53 | 22.73214 | 118.79967 | 40902 ft | 510 kts | 54° |
| 2026-04-21 18:53 | 22.76927 | 118.86515 | 40902 ft | 510 kts | 54° |
| 2026-04-21 18:54 | 22.80636 | 118.93066 | 40908 ft | 510 kts | 54° |
| 2026-04-21 18:54 | 22.84326 | 118.99589 | 40899 ft | 511 kts | 54° |
| 2026-04-21 18:55 | 22.87438 | 119.05099 | 40897 ft | 512 kts | 54° |
| 2026-04-21 18:55 | 22.91755 | 119.12750 | 40897 ft | 512 kts | 54° |
| 2026-04-21 18:56 | 22.95465 | 119.19335 | 40899 ft | 512 kts | 54° |
| 2026-04-21 18:56 | 22.99176 | 119.25930 | 40907 ft | 512 kts | 55° |
| 2026-04-21 18:57 | 23.02884 | 119.32527 | 40913 ft | 512 kts | 54° |
| 2026-04-21 18:57 | 23.06596 | 119.39139 | 40901 ft | 513 kts | 54° |
| 2026-04-21 18:58 | 23.10304 | 119.45756 | 40898 ft | 513 kts | 54° |
| 2026-04-21 18:58 | 23.14010 | 119.52375 | 40900 ft | 513 kts | 54° |
| 2026-04-21 18:59 | 23.17715 | 119.59003 | 40901 ft | 514 kts | 55° |
| 2026-04-21 18:59 | 23.21422 | 119.65649 | 40920 ft | 515 kts | 55° |
| 2026-04-21 19:00 | 23.25143 | 119.72309 | 40913 ft | 516 kts | 54° |
| 2026-04-21 19:00 | 23.28867 | 119.78983 | 40916 ft | 516 kts | 55° |
| 2026-04-21 19:01 | 23.32583 | 119.85656 | 40916 ft | 516 kts | 55° |
| 2026-04-21 19:01 | 23.36505 | 119.92174 | 40915 ft | 512 kts | 46° |
| 2026-04-21 19:02 | 23.41408 | 119.97714 | 40914 ft | 507 kts | 39° |
| 2026-04-21 19:02 | 23.46482 | 120.02960 | 40915 ft | 507 kts | 38° |
| 2026-04-21 19:03 | 23.51637 | 120.08219 | 40928 ft | 508 kts | 38° |
| 2026-04-21 19:03 | 23.56783 | 120.13499 | 40930 ft | 508 kts | 39° |
| 2026-04-21 19:04 | 23.61918 | 120.18797 | 40938 ft | 509 kts | 39° |
| 2026-04-21 19:04 | 23.67055 | 120.24110 | 40942 ft | 509 kts | 39° |
| 2026-04-21 19:05 | 23.72196 | 120.29433 | 40946 ft | 510 kts | 39° |
| 2026-04-21 19:05 | 23.77336 | 120.34760 | 40937 ft | 510 kts | 39° |
| 2026-04-21 19:06 | 23.82477 | 120.40093 | 40960 ft | 510 kts | 39° |
| 2026-04-21 19:06 | 23.87610 | 120.45425 | 40957 ft | 509 kts | 39° |
| 2026-04-21 19:07 | 23.92729 | 120.50759 | 40939 ft | 509 kts | 39° |
| 2026-04-21 19:07 | 23.97829 | 120.56133 | 40950 ft | 509 kts | 39° |
| 2026-04-21 19:08 | 24.02915 | 120.61512 | 40947 ft | 509 kts | 39° |
| 2026-04-21 19:08 | 24.08008 | 120.66897 | 40951 ft | 509 kts | 39° |
| 2026-04-21 19:09 | 24.13097 | 120.72280 | 40953 ft | 509 kts | 39° |
| 2026-04-21 19:09 | 24.18177 | 120.77660 | 40951 ft | 508 kts | 39° |
| 2026-04-21 19:10 | 24.23262 | 120.83052 | 40950 ft | 508 kts | 39° |
| 2026-04-21 19:10 | 24.28342 | 120.88444 | 40954 ft | 508 kts | 39° |
| 2026-04-21 19:11 | 24.33421 | 120.93840 | 40967 ft | 508 kts | 39° |
| 2026-04-21 19:11 | 24.38494 | 120.99238 | 40971 ft | 509 kts | 39° |
| 2026-04-21 19:12 | 24.42542 | 121.03949 | 40967 ft | 513 kts | 45° |
| 2026-04-21 19:12 | 24.47814 | 121.11058 | 40964 ft | 514 kts | 46° |
| 2026-04-21 19:13 | 24.52255 | 121.17214 | 40961 ft | 514 kts | 47° |
| 2026-04-21 19:13 | 24.56669 | 121.23336 | 40954 ft | 515 kts | 46° |
| 2026-04-21 19:14 | 24.61127 | 121.29500 | 40961 ft | 515 kts | 46° |
| 2026-04-21 19:14 | 24.65585 | 121.35673 | 40963 ft | 515 kts | 46° |
| 2026-04-21 19:15 | 24.70041 | 121.41851 | 40953 ft | 516 kts | 46° |
| 2026-04-21 19:15 | 24.74494 | 121.48031 | 40938 ft | 515 kts | 46° |
| 2026-04-21 19:16 | 24.78952 | 121.54224 | 40914 ft | 516 kts | 46° |
| 2026-04-21 19:16 | 24.83410 | 121.60428 | 40910 ft | 517 kts | 47° |
| 2026-04-21 19:17 | 24.90089 | 121.69738 | 40908 ft | 516 kts | 47° |
| 2026-04-21 19:17 | 24.94696 | 121.75784 | 40916 ft | 514 kts | 43° |
| 2026-04-21 19:18 | 24.99434 | 121.81682 | 40904 ft | 514 kts | 43° |
| 2026-04-21 19:18 | 25.04165 | 121.87619 | 40923 ft | 516 kts | 44° |
| 2026-04-21 19:19 | 25.08828 | 121.93572 | 40916 ft | 518 kts | 46° |
| 2026-04-21 19:19 | 25.10831 | 121.96897 | 40919 ft | 525 kts | 59° |
| 2026-04-21 19:19 | 25.12145 | 122.00668 | 40943 ft | 531 kts | 73° |
| 2026-04-21 19:20 | 25.12613 | 122.04725 | 40930 ft | 535 kts | 89° |
| 2026-04-21 19:20 | 25.12495 | 122.08815 | 40916 ft | 536 kts | 93° |
| 2026-04-21 19:20 | 25.11799 | 122.17027 | 40922 ft | 537 kts | 95° |
| 2026-04-21 19:21 | 25.10995 | 122.25209 | 40920 ft | 537 kts | 95° |
| 2026-04-21 19:21 | 25.10239 | 122.33399 | 40928 ft | 537 kts | 95° |
| 2026-04-21 19:22 | 25.09443 | 122.41579 | 40927 ft | 536 kts | 95° |
| 2026-04-21 19:22 | 25.08635 | 122.49738 | 40927 ft | 535 kts | 95° |
| 2026-04-21 19:23 | 25.07971 | 122.56516 | 40931 ft | 534 kts | 95° |
| 2026-04-21 19:23 | 25.07175 | 122.64666 | 40932 ft | 534 kts | 95° |
| 2026-04-21 19:24 | 25.06378 | 122.72814 | 40935 ft | 534 kts | 95° |
| 2026-04-21 19:24 | 25.05577 | 122.80945 | 40936 ft | 534 kts | 95° |
| 2026-04-21 19:25 | 25.04772 | 122.89074 | 40950 ft | 534 kts | 95° |
| 2026-04-21 19:25 | 25.03960 | 122.97216 | 40944 ft | 534 kts | 96° |
| 2026-04-21 19:26 | 25.03147 | 123.05357 | 40944 ft | 534 kts | 96° |
| 2026-04-21 19:26 | 25.02331 | 123.13494 | 40944 ft | 534 kts | 96° |
| 2026-04-21 19:27 | 25.01515 | 123.21628 | 40944 ft | 534 kts | 96° |
| 2026-04-21 19:27 | 25.00687 | 123.29779 | 40944 ft | 535 kts | 96° |
| 2026-04-21 19:28 | 24.99850 | 123.37913 | 40946 ft | 535 kts | 96° |
| 2026-04-21 19:28 | 24.99010 | 123.46059 | 40947 ft | 535 kts | 96° |
| 2026-04-21 19:29 | 24.98174 | 123.54146 | 40950 ft | 535 kts | 96° |
| 2026-04-21 19:29 | 24.97327 | 123.62294 | 40950 ft | 535 kts | 96° |
| 2026-04-21 19:30 | 24.96477 | 123.70432 | 40950 ft | 535 kts | 96° |
| 2026-04-21 19:30 | 24.95622 | 123.78567 | 40951 ft | 535 kts | 96° |
| 2026-04-21 19:31 | 24.94762 | 123.86709 | 40946 ft | 535 kts | 96° |
| 2026-04-21 19:31 | 24.93898 | 123.94848 | 40942 ft | 535 kts | 96° |
| 2026-04-21 19:32 | 24.93026 | 124.02978 | 40948 ft | 535 kts | 97° |
| 2026-04-21 19:32 | 24.92083 | 124.11104 | 40945 ft | 535 kts | 97° |
| 2026-04-21 19:33 | 24.91112 | 124.19232 | 40941 ft | 535 kts | 97° |
| 2026-04-21 19:33 | 24.90146 | 124.27357 | 40957 ft | 535 kts | 97° |
| 2026-04-21 19:34 | 24.89184 | 124.35481 | 40955 ft | 535 kts | 97° |
| 2026-04-21 19:34 | 24.88221 | 124.43591 | 40958 ft | 535 kts | 97° |
| 2026-04-21 19:35 | 24.86765 | 124.55780 | 40965 ft | 535 kts | 97° |
| 2026-04-21 19:36 | 24.85788 | 124.63901 | 40964 ft | 535 kts | 97° |
| 2026-04-21 19:36 | 24.84808 | 124.72017 | 40960 ft | 535 kts | 97° |
| 2026-04-21 19:37 | 24.83823 | 124.80132 | 40964 ft | 535 kts | 98° |
| 2026-04-21 19:37 | 24.82834 | 124.88250 | 40964 ft | 535 kts | 98° |
| 2026-04-21 19:38 | 24.81846 | 124.96352 | 40966 ft | 535 kts | 98° |
| 2026-04-21 19:38 | 24.80845 | 125.04464 | 40966 ft | 534 kts | 98° |
| 2026-04-21 19:39 | 24.79842 | 125.12564 | 40965 ft | 534 kts | 98° |
| 2026-04-21 19:39 | 24.78837 | 125.20660 | 40966 ft | 534 kts | 98° |
| 2026-04-21 19:40 | 24.78723 | 125.28785 | 40967 ft | 532 kts | 77° |
| 2026-04-21 19:40 | 24.79840 | 125.32635 | 40966 ft | 527 kts | 62° |
| 2026-04-21 19:40 | 24.81549 | 125.36189 | 40970 ft | 525 kts | 57° |
| 2026-04-21 19:41 | 24.85341 | 125.42998 | 40974 ft | 526 kts | 54° |
| 2026-04-21 19:41 | 24.89289 | 125.49781 | 40976 ft | 526 kts | 54° |
| 2026-04-21 19:42 | 24.93203 | 125.56595 | 40973 ft | 526 kts | 54° |
| 2026-04-21 19:42 | 24.95143 | 125.60012 | 40839 ft | 526 kts | 55° |
| 2026-04-21 19:42 | 24.97074 | 125.63430 | 40587 ft | 526 kts | 55° |
| 2026-04-21 19:42 | 24.99011 | 125.66866 | 40377 ft | 527 kts | 55° |
| 2026-04-21 19:43 | 25.00945 | 125.70302 | 40149 ft | 529 kts | 55° |
| 2026-04-21 19:43 | 25.02885 | 125.73749 | 39900 ft | 530 kts | 55° |
| 2026-04-21 19:43 | 25.04830 | 125.77207 | 39666 ft | 531 kts | 55° |
| 2026-04-21 19:43 | 25.06775 | 125.80667 | 39436 ft | 531 kts | 55° |
| 2026-04-21 19:44 | 25.08724 | 125.84138 | 39205 ft | 532 kts | 55° |
| 2026-04-21 19:44 | 25.10666 | 125.87596 | 38864 ft | 530 kts | 55° |
| 2026-04-21 19:44 | 25.12604 | 125.91052 | 38170 ft | 529 kts | 56° |
| 2026-04-21 19:44 | 25.14539 | 125.94505 | 37450 ft | 528 kts | 56° |
| 2026-04-21 19:45 | 25.16467 | 125.97948 | 36729 ft | 528 kts | 56° |
| 2026-04-21 19:45 | 25.18399 | 126.01402 | 35996 ft | 529 kts | 56° |
| 2026-04-21 19:45 | 25.20330 | 126.04854 | 35239 ft | 530 kts | 56° |
| 2026-04-21 19:45 | 25.22270 | 126.08319 | 34430 ft | 531 kts | 56° |
| 2026-04-21 19:46 | 25.24222 | 126.11807 | 33471 ft | 536 kts | 56° |
| 2026-04-21 19:46 | 25.26185 | 126.15318 | 32502 ft | 538 kts | 56° |
| 2026-04-21 19:46 | 25.28155 | 126.18849 | 31515 ft | 541 kts | 56° |
| 2026-04-21 19:46 | 25.30134 | 126.22401 | 30505 ft | 544 kts | 56° |
| 2026-04-21 19:47 | 25.32122 | 126.25972 | 29407 ft | 547 kts | 56° |
| 2026-04-21 19:47 | 25.34086 | 126.29505 | 28522 ft | 544 kts | 56° |
| 2026-04-21 19:47 | 25.36057 | 126.33055 | 27725 ft | 540 kts | 56° |
| 2026-04-21 19:47 | 25.38010 | 126.36578 | 26945 ft | 535 kts | 56° |
| 2026-04-21 19:48 | 25.39952 | 126.40079 | 26140 ft | 531 kts | 56° |
| 2026-04-21 19:48 | 25.41874 | 126.43542 | 25410 ft | 526 kts | 56° |
| 2026-04-21 19:48 | 25.43777 | 126.46974 | 24733 ft | 521 kts | 56° |
| 2026-04-21 19:48 | 25.45666 | 126.50382 | 24041 ft | 516 kts | 56° |
| 2026-04-21 19:49 | 25.47528 | 126.53748 | 23344 ft | 510 kts | 56° |
| 2026-04-21 19:49 | 25.49369 | 126.57077 | 22584 ft | 504 kts | 57° |
| 2026-04-21 19:49 | 25.51178 | 126.60364 | 21852 ft | 497 kts | 57° |
| 2026-04-21 19:49 | 25.52963 | 126.63616 | 21132 ft | 491 kts | 57° |
| 2026-04-21 19:50 | 25.54132 | 126.65747 | 20686 ft | 486 kts | 57° |
| 2026-04-21 19:50 | 25.56461 | 126.69997 | 19743 ft | 478 kts | 57° |
| 2026-04-21 19:50 | 25.58174 | 126.73125 | 19072 ft | 472 kts | 57° |
| 2026-04-21 19:50 | 25.59865 | 126.76213 | 18396 ft | 466 kts | 57° |
| 2026-04-21 19:51 | 25.61534 | 126.79261 | 17631 ft | 460 kts | 57° |
| 2026-04-21 19:51 | 25.63181 | 126.82274 | 16878 ft | 454 kts | 57° |
| 2026-04-21 19:51 | 25.64806 | 126.85247 | 16153 ft | 448 kts | 57° |
| 2026-04-21 19:51 | 25.66412 | 126.88184 | 15417 ft | 442 kts | 57° |
| 2026-04-21 19:52 | 25.67993 | 126.91078 | 14691 ft | 437 kts | 57° |
| 2026-04-21 19:52 | 25.69561 | 126.93947 | 13973 ft | 432 kts | 57° |
| 2026-04-21 19:52 | 25.71103 | 126.96775 | 13207 ft | 426 kts | 57° |
| 2026-04-21 19:52 | 25.72625 | 126.99570 | 12482 ft | 420 kts | 57° |
| 2026-04-21 19:53 | 25.74103 | 127.02290 | 12145 ft | 403 kts | 57° |
| 2026-04-21 19:53 | 25.75524 | 127.04901 | 11874 ft | 387 kts | 57° |
| 2026-04-21 19:53 | 25.76889 | 127.07412 | 11579 ft | 373 kts | 57° |
| 2026-04-21 19:53 | 25.78200 | 127.09824 | 11323 ft | 359 kts | 57° |
| 2026-04-21 19:54 | 25.79465 | 127.12151 | 11078 ft | 346 kts | 57° |
| 2026-04-21 19:54 | 25.80684 | 127.14395 | 10879 ft | 334 kts | 56° |
| 2026-04-21 19:54 | 25.81860 | 127.16562 | 10657 ft | 321 kts | 56° |
| 2026-04-21 19:54 | 25.82998 | 127.18659 | 10332 ft | 315 kts | 56° |
| 2026-04-21 19:55 | 25.84122 | 127.20726 | 9945 ft | 311 kts | 56° |
| 2026-04-21 19:55 | 25.85233 | 127.22772 | 9517 ft | 308 kts | 56° |
| 2026-04-21 19:55 | 25.86334 | 127.24800 | 9067 ft | 305 kts | 56° |
| 2026-04-21 19:55 | 25.87417 | 127.26800 | 8675 ft | 301 kts | 56° |
| 2026-04-21 19:56 | 25.88492 | 127.28783 | 8232 ft | 298 kts | 57° |
| 2026-04-21 19:56 | 25.89505 | 127.30780 | 7813 ft | 297 kts | 64° |
| 2026-04-21 19:56 | 25.90157 | 127.32939 | 7419 ft | 294 kts | 73° |
| 2026-04-21 19:56 | 25.90667 | 127.35122 | 7044 ft | 290 kts | 74° |
| 2026-04-21 19:57 | 25.91159 | 127.37272 | 6708 ft | 285 kts | 74° |
| 2026-04-21 19:57 | 25.91650 | 127.39398 | 6374 ft | 283 kts | 74° |
| 2026-04-21 19:57 | 25.92137 | 127.41502 | 6103 ft | 277 kts | 74° |
| 2026-04-21 19:57 | 25.92602 | 127.43508 | 5927 ft | 266 kts | 74° |
| 2026-04-21 19:58 | 25.93061 | 127.45480 | 5739 ft | 256 kts | 74° |
| 2026-04-21 19:58 | 25.93499 | 127.47357 | 5439 ft | 252 kts | 75° |
| 2026-04-21 19:58 | 25.93937 | 127.49230 | 5157 ft | 248 kts | 75° |
| 2026-04-21 19:58 | 25.94365 | 127.51066 | 4871 ft | 244 kts | 76° |
| 2026-04-21 19:59 | 25.94785 | 127.52865 | 4659 ft | 236 kts | 77° |
| 2026-04-21 19:59 | 25.95188 | 127.54595 | 4524 ft | 226 kts | 77° |
| 2026-04-21 19:59 | 25.95576 | 127.56266 | 4286 ft | 221 kts | 77° |
| 2026-04-21 19:59 | 25.96005 | 127.57903 | 3999 ft | 220 kts | 70° |
| 2026-04-21 20:00 | 25.96799 | 127.59348 | 3697 ft | 221 kts | 48° |
| 2026-04-21 20:00 | 25.97993 | 127.60416 | 3424 ft | 220 kts | 35° |
| 2026-04-21 20:00 | 25.99278 | 127.61341 | 3149 ft | 220 kts | 34° |
| 2026-04-21 20:00 | 26.00564 | 127.62252 | 2880 ft | 218 kts | 34° |
| 2026-04-21 20:01 | 26.01810 | 127.63143 | 2757 ft | 207 kts | 34° |
| 2026-04-21 20:01 | 26.02990 | 127.63990 | 2562 ft | 199 kts | 36° |
| 2026-04-21 20:01 | 26.04154 | 127.64791 | 2335 ft | 194 kts | 30° |
| 2026-04-21 20:01 | 26.05434 | 127.65206 | 2236 ft | 187 kts | 5° |
| 2026-04-21 20:02 | 26.06269 | 127.65223 | 2187 ft | 175 kts | 360° |
| 2026-04-21 20:02 | 26.07825 | 127.65145 | 2102 ft | 164 kts | 359° |
| 2026-04-21 20:02 | 26.08941 | 127.65085 | 1918 ft | 158 kts | 359° |
| 2026-04-21 20:02 | 26.10034 | 127.65029 | 1639 ft | 157 kts | 360° |
| 2026-04-21 20:03 | 26.11128 | 127.64977 | 1331 ft | 158 kts | 1° |
| 2026-04-21 20:03 | 26.12230 | 127.64960 | 1027 ft | 158 kts | 2° |
| 2026-04-21 20:03 | 26.13322 | 127.64898 | 776 ft | 156 kts | 356° |
| 2026-04-21 20:03 | 26.14391 | 127.64812 | 531 ft | 152 kts | 358° |
| 2026-04-21 20:04 | 26.15427 | 127.64765 | 370 ft | 149 kts | 359° |
| 2026-04-21 20:04 | 26.16454 | 127.64715 | 291 ft | 148 kts | 359° |
| 2026-04-21 20:04 | 26.17475 | 127.64672 | 179 ft | 145 kts | 356° |
| 2026-04-21 20:04 | 26.18470 | 127.64638 | 46 ft | 145 kts | 358° |
| 2026-04-21 20:05 | 26.19392 | 127.64595 | 24 ft | 104 kts | 357° |
| 2026-04-21 20:05 | 26.19875 | 127.64571 | 22 ft | 55 kts | 357° |
| 2026-04-21 20:05 | 26.20208 | 127.64585 | 26 ft | 42 kts | 18° |
| 2026-04-21 20:05 | 26.20380 | 127.64669 | 26 ft | 19 kts | 28° |
| 2026-04-21 20:06 | 26.20501 | 127.64737 | 25 ft | 19 kts | 20° |
| 2026-04-21 20:06 | 26.20640 | 127.64744 | 26 ft | 22 kts | 357° |
| 2026-04-21 20:06 | 26.20780 | 127.64734 | 24 ft | 17 kts | 356° |
| 2026-04-21 20:06 | 26.20890 | 127.64764 | 25 ft | 15 kts | 46° |
| 2026-04-21 20:07 | 26.20922 | 127.64846 | 26 ft | 8 kts | 62° |
| 2026-04-21 20:07 | 26.20960 | 127.64878 | 26 ft | 6 kts | 15° |
| 2026-04-21 20:07 | 26.20982 | 127.64885 | 26 ft | 3 kts | 27° |
| 2026-04-21 20:07 | 26.20990 | 127.64893 | 26 ft | 0 kts | 40° |
| 2026-04-21 20:08 | 26.21000 | 127.64907 | 27 ft | 5 kts | 57° |
| 2026-04-21 20:08 | 26.21005 | 127.64939 | 27 ft | 3 kts | 86° |
| 2026-04-21 20:08 | 26.21005 | 127.64948 | 28 ft | 0 kts | 86° |
| 2026-04-21 20:08 | 26.21006 | 127.64964 | 28 ft | 0 kts | 86° |
| 2026-04-21 20:09 | 26.21006 | 127.64963 | 28 ft | 0 kts | 86° |